Time;durP1;ratioP1;P1;durP2;ratioP2;P2;SDS_P1;SDS_P2;PMS_P1;PMS_P2;Temp;Humidity;BMP_temperature;BMP_pressure;BME280_temperature;BME280_humidity;BME280_pressure;Samples;Min_cycle;Max_cycle;Signal;HPM_P1;HPM_P2
2024/02/09 00:01:56;;;;;;;;;16.00;16.00;;;;;9.55;90.21;98101.28;6278113;20;2821274;-43
2024/02/09 00:04:25;;;;;;;;;17.00;16.33;;;;;9.51;90.13;98090.97;6278843;20;3552405;-42
2024/02/09 00:06:53;;;;;;;;;18.50;12.00;;;;;9.57;90.41;98095.81;6309300;20;2826562;-48
2024/02/09 00:09:22;;;;;;;;;15.00;15.00;;;;;9.67;89.90;98097.59;6277835;20;3532559;-42
2024/02/09 00:11:52;;;;;;;;;17.33;14.33;;;;;9.61;89.73;98094.56;6308617;20;3550674;-43
2024/02/09 00:14:20;;;;;;;;;14.33;13.00;;;;;9.50;91.54;98097.31;6275671;20;3525775;-44
2024/02/09 00:16:49;;;;;;;;;14.00;13.00;;;;;9.39;91.61;98104.41;6308232;20;2787582;-42
2024/02/09 00:19:17;;;;;;;;;13.67;13.33;;;;;9.39;91.87;98099.03;6308863;20;3519087;-43
2024/02/09 00:21:45;;;;;;;;;19.00;14.00;;;;;9.55;91.69;98093.25;6311908;20;2804472;-44
2024/02/09 00:24:13;;;;;;;;;13.00;12.00;;;;;9.50;91.96;98094.63;6280001;20;2798210;-43
2024/02/09 00:26:42;;;;;;;;;19.33;13.67;;;;;9.69;91.54;98084.09;6278208;20;3534812;-43
2024/02/09 00:29:10;;;;;;;;;16.00;13.50;;;;;9.56;91.96;98088.78;6312311;20;2806531;-45
2024/02/09 00:31:38;;;;;;;;;11.67;11.00;;;;;9.59;92.38;98077.81;6278672;20;2794101;-43
2024/02/09 00:34:06;;;;;;;;;14.50;12.00;;;;;9.62;92.18;98082.91;6311249;20;2787809;-43
2024/02/09 00:36:35;;;;;;;;;19.00;14.00;;;;;9.47;93.02;98089.53;6278534;20;3556618;-42
2024/02/09 00:39:05;;;;;;;;;15.00;13.00;;;;;9.50;92.73;98083.91;6313710;20;2787922;-42
2024/02/09 00:41:33;;;;;;;;;14.00;12.00;;;;;9.65;92.14;98088.00;6282360;20;2784879;-42
2024/02/09 00:44:03;;;;;;;;;14.00;12.80;;;;;9.71;91.95;98087.47;6302331;20;2797173;-43
2024/02/09 00:46:32;;;;;;;;;13.00;11.50;;;;;9.62;92.39;98088.25;6283813;20;2792016;-42
2024/02/09 00:49:03;;;;;;;;;13.00;12.50;;;;;9.54;93.28;98088.03;6280445;20;2798201;-43
2024/02/09 00:51:33;;;;;;;;;11.60;11.60;;;;;9.72;92.50;98089.19;6304457;20;2787944;-45
2024/02/09 00:54:01;;;;;;;;;11.50;6.00;;;;;9.72;92.07;98086.50;6280162;20;2762820;-43
2024/02/09 00:56:30;;;;;;;;;15.33;13.00;;;;;9.70;92.59;98082.25;6275339;20;2793327;-43
2024/02/09 00:59:01;;;;;;;;;13.57;8.71;;;;;9.77;92.03;98078.94;6351079;20;1808649;-42
2024/02/09 01:01:32;;;;;;;;;10.00;10.00;;;;;9.86;91.62;98067.41;6310210;20;2792060;-43
2024/02/09 01:04:00;;;;;;;;;10.50;8.00;;;;;9.95;91.23;98079.19;6277525;20;2764939;-43
2024/02/09 01:06:30;;;;;;;;;13.40;9.80;;;;;9.94;90.79;98071.28;6301928;20;2789901;-44
2024/02/09 01:08:58;;;;;;;;;12.50;10.50;;;;;10.00;90.65;98086.84;6277386;20;2790658;-43
2024/02/09 01:11:27;;;;;;;;;11.00;11.00;;;;;9.92;90.87;98089.34;6277146;20;2789920;-42
2024/02/09 02:45:32;;;;;;;;;13.00;11.00;;;;;9.27;95.43;98057.22;6278317;20;2796539;-43
2024/02/09 03:04:47;;;;;;;;;14.00;10.33;;;;;9.35;95.59;98036.00;6270309;20;2792055;-43
2024/02/09 03:07:16;;;;;;;;;14.33;12.00;;;;;9.28;95.69;98037.47;6304994;20;2788819;-43
2024/02/09 03:10:05;;;;;;;;;12.25;11.75;;;;;9.35;94.89;98030.66;6321647;20;1821311;-45
2024/02/09 03:12:33;;;;;;;;;11.00;11.00;;;;;9.39;95.08;98029.41;6304688;20;2814925;-44
2024/02/09 03:15:01;;;;;;;;;15.33;13.33;;;;;9.39;94.91;98033.91;6268192;20;2801441;-45
2024/02/09 03:17:32;;;;;;;;;16.00;14.00;;;;;9.21;96.31;98036.28;6305101;20;3548331;-43
2024/02/09 03:20:00;;;;;;;;;9.50;9.50;;;;;9.18;96.33;98025.81;6304845;20;2769081;-43
2024/02/09 03:22:30;;;;;;;;;12.50;12.50;;;;;9.14;96.66;98033.28;6276697;20;2744077;-43
2024/02/09 03:25:02;;;;;;;;;10.00;9.60;;;;;9.26;97.27;98034.06;6326414;20;2791060;-42
2024/02/09 03:27:41;;;;;;;;;12.67;11.33;;;;;9.00;97.86;98025.50;6270288;20;2794152;-43
2024/02/09 03:30:09;;;;;;;;;13.00;11.00;;;;;9.08;98.58;98030.22;6305459;20;2796184;-42
2024/02/09 03:32:44;;;;;;;;;13.67;12.67;;;;;9.21;98.06;98041.63;6307622;20;2797260;-43
2024/02/09 03:35:14;;;;;;;;;9.80;9.80;;;;;9.16;98.36;98039.34;6335460;20;2789990;-42
2024/02/09 03:37:44;;;;;;;;;15.80;9.80;;;;;9.18;97.96;98044.56;6302733;20;2798295;-42
2024/02/09 03:40:14;;;;;;;;;15.50;11.50;;;;;9.27;97.99;98043.81;6282313;20;2798231;-44
2024/02/09 03:42:43;;;;;;;;;13.67;13.33;;;;;9.06;99.32;98034.84;6279179;20;2794097;-43
2024/02/09 03:45:11;;;;;;;;;13.67;12.33;;;;;8.94;100.00;98042.06;6307803;20;2789913;-43
2024/02/09 03:47:40;;;;;;;;;14.50;13.50;;;;;8.97;100.00;98045.34;6312219;20;2800321;-43
2024/02/09 03:50:08;;;;;;;;;11.00;9.50;;;;;8.84;100.00;98038.44;6277878;20;2782580;-43
2024/02/09 03:52:37;;;;;;;;;13.00;13.00;;;;;9.09;100.00;98039.97;6283179;20;2794846;-43
2024/02/09 03:55:07;;;;;;;;;13.33;11.33;;;;;8.85;100.00;98046.34;6276771;20;2805532;-43
2024/02/09 03:57:36;;;;;;;;;18.33;10.00;;;;;8.91;100.00;98047.69;6310515;20;3548173;-42
2024/02/09 04:00:04;;;;;;;;;15.00;12.00;;;;;8.96;100.00;98045.47;6312381;20;2801336;-43
2024/02/09 04:02:33;;;;;;;;;15.20;14.60;;;;;8.90;100.00;98032.56;6304985;20;2811042;-44
2024/02/09 04:05:04;;;;;;;;;12.20;11.00;;;;;8.78;100.00;98034.44;6302980;20;2798297;-43
2024/02/09 04:07:32;;;;;;;;;12.50;11.50;;;;;8.80;100.00;98037.84;6284248;20;2799363;-43
2024/02/09 04:10:02;;;;;;;;;16.67;13.00;;;;;8.96;100.00;98035.63;6278588;20;3545099;-43
2024/02/09 04:12:53;;;;;;;;;12.50;12.50;;;;;8.81;100.00;98034.19;6310940;20;2799237;-43
2024/02/09 04:15:21;;;;;;;;;14.00;10.00;;;;;8.76;100.00;98034.53;6283409;20;2788845;-43
2024/02/09 04:17:51;;;;;;;;;16.33;14.00;;;;;8.64;100.00;98032.88;6278260;20;3531635;-42
2024/02/09 04:20:19;;;;;;;;;14.00;13.00;;;;;8.73;100.00;98036.63;6309775;20;2811777;-43
2024/02/09 04:22:50;;;;;;;;;13.00;11.00;;;;;8.93;100.00;98033.19;6278609;20;2789991;-42
2024/02/09 04:25:19;;;;;;;;;11.00;11.00;;;;;8.78;100.00;98034.44;6276936;20;2790939;-43
2024/02/09 04:27:49;;;;;;;;;14.00;12.00;;;;;8.78;100.00;98039.78;6309412;20;3519735;-43
2024/02/09 04:30:18;;;;;;;;;14.67;14.00;;;;;8.73;100.00;98036.63;6310187;20;3535695;-43
2024/02/09 04:32:47;;;;;;;;;14.00;11.00;;;;;8.91;100.00;98034.31;6308502;20;2795283;-44
2024/02/09 04:35:15;;;;;;;;;14.00;14.00;;;;;8.77;100.00;98032.75;6311811;20;2810729;-43
2024/02/09 04:37:44;;;;;;;;;15.00;11.00;;;;;8.70;100.00;98031.53;6283630;20;2794060;-43
2024/02/09 04:40:13;;;;;;;;;16.00;13.00;;;;;8.64;100.00;98032.03;6276922;20;3521198;-43
2024/02/09 04:42:41;;;;;;;;;17.67;12.33;;;;;8.56;100.00;98024.63;6309093;20;3545102;-43
2024/02/09 04:45:10;;;;;;;;;18.67;17.00;;;;;8.54;100.00;98019.38;6305174;20;3551427;-45
2024/02/09 04:47:39;;;;;;;;;22.67;17.33;;;;;8.64;100.00;98027.53;6307088;20;3569065;-42
2024/02/09 04:50:08;;;;;;;;;24.33;20.00;;;;;8.40;100.00;98030.34;6278186;20;3581482;-43
2024/02/09 04:52:37;;;;;;;;;19.50;16.00;;;;;8.45;100.00;98024.59;6275610;20;2500489;-43
2024/02/09 04:55:06;;;;;;;;;29.50;22.50;;;;;8.60;100.00;98030.56;6273096;20;2847142;-43
2024/02/09 04:57:36;;;;;;;;;31.33;23.00;;;;;8.22;100.00;98026.41;6277808;20;2852383;-44
2024/02/09 05:00:07;;;;;;;;;41.33;37.00;;;;;8.44;100.00;98021.09;6308473;20;2855001;-43
2024/02/09 05:02:38;;;;;;;;;33.33;31.00;;;;;8.49;100.00;98021.56;6309574;20;3606495;-44
2024/02/09 05:05:08;;;;;;;;;36.33;27.00;;;;;8.36;100.00;98013.63;6272752;20;3620134;-44
2024/02/09 05:07:37;;;;;;;;;26.00;26.00;;;;;8.31;100.00;98014.97;6307607;20;2847122;-44
2024/02/09 05:10:06;;;;;;;;;38.00;36.00;;;;;8.24;100.00;98014.63;6276343;20;2850349;-44
2024/02/09 05:12:35;;;;;;;;;30.50;22.00;;;;;8.58;100.00;98025.31;6276960;20;2848276;-43
2024/02/09 05:15:05;;;;;;;;;39.67;36.00;;;;;8.41;100.00;98015.16;6275072;20;2859725;-43
2024/02/09 05:17:36;;;;;;;;;57.67;46.67;;;;;8.44;100.00;98028.25;6308435;20;2862889;-43
2024/02/09 05:20:07;;;;;;;;;51.00;40.50;;;;;8.16;100.00;98029.56;6306211;20;2848251;-44
2024/02/09 05:22:37;;;;;;;;;51.67;41.00;;;;;8.30;100.00;98024.84;6275570;20;2864932;-45
2024/02/09 05:25:07;;;;;;;;;24.67;24.67;;;;;8.22;100.00;98021.91;6309489;20;3598181;-44
2024/02/09 05:27:36;;;;;;;;;21.67;18.33;;;;;8.52;100.00;98023.16;6276462;20;3560745;-42
2024/02/09 05:30:08;;;;;;;;;25.50;21.00;;;;;8.30;100.00;98015.97;6307963;20;2846130;-42
2024/02/09 05:32:36;;;;;;;;;21.00;15.50;;;;;8.44;100.00;98026.44;6279142;20;2825299;-43
2024/02/09 05:35:06;;;;;;;;;28.00;24.00;;;;;8.45;100.00;98030.84;6275050;20;2850415;-44
2024/02/09 05:37:34;;;;;;;;;19.00;18.00;;;;;8.35;100.00;98029.81;6273632;20;2822293;-43
2024/02/09 05:40:03;;;;;;;;;19.00;17.00;;;;;8.14;100.00;98025.19;6277863;20;2826376;-44
2024/02/09 05:42:31;;;;;;;;;20.33;17.00;;;;;8.45;100.00;98032.63;6276459;20;3564864;-45
2024/02/09 05:45:05;;;;;;;;;20.33;16.00;;;;;8.46;100.00;98027.16;6275609;20;3558628;-44
2024/02/09 05:47:34;;;;;;;;;25.00;20.00;;;;;8.25;100.00;98035.03;6277626;20;3571174;-42
2024/02/09 05:50:02;;;;;;;;;20.50;20.00;;;;;8.16;100.00;98026.88;6274750;20;2498212;-42
2024/02/09 05:52:31;;;;;;;;;20.00;16.00;;;;;8.31;100.00;98025.69;6275448;20;3548237;-44
2024/02/09 05:55:00;;;;;;;;;19.00;18.00;;;;;8.37;100.00;98025.19;6272681;20;3569033;-43
2024/02/09 05:57:31;;;;;;;;;13.00;13.00;;;;;8.32;100.00;98022.00;6276257;20;3530560;-44
2024/02/09 05:59:58;;;;;;;;;25.00;16.00;;;;;8.21;100.00;98030.03;6307595;20;2837787;-41
2024/02/09 06:02:28;;;;;;;;;17.00;17.00;;;;;8.30;100.00;98024.00;6276587;20;2814835;-41
2024/02/09 06:04:56;;;;;;;;;20.00;17.67;;;;;8.29;100.00;98038.31;6272112;20;3564858;-41
2024/02/09 06:07:27;;;;;;;;;21.33;17.00;;;;;8.35;100.00;98027.16;6274745;20;3553378;-43
2024/02/09 06:09:56;;;;;;;;;18.00;18.00;;;;;8.22;100.00;98031.75;6304420;20;2496109;-43
2024/02/09 06:12:23;;;;;;;;;16.50;16.00;;;;;8.25;100.00;98036.88;6278882;20;2808623;-41
2024/02/09 06:14:52;;;;;;;;;17.00;17.00;;;;;8.20;100.00;98039.88;6274952;20;3547201;-42
2024/02/09 06:17:20;;;;;;;;;17.50;16.00;;;;;8.07;100.00;98036.47;6307361;20;2825352;-43
2024/02/09 06:19:50;;;;;;;;;15.80;12.00;;;;;8.33;100.00;98039.78;6300417;20;2798233;-42
2024/02/09 06:22:18;;;;;;;;;14.67;14.67;;;;;8.25;100.00;98052.91;6277167;20;3551424;-41
2024/02/09 06:24:46;;;;;;;;;18.00;13.00;;;;;8.23;100.00;98049.50;6310448;20;2693039;-41
2024/02/09 06:27:15;;;;;;;;;17.67;13.00;;;;;8.49;100.00;98055.50;6305061;20;2819232;-42
2024/02/09 06:29:45;;;;;;;;;14.00;13.00;;;;;8.33;100.00;98051.31;6332149;20;2806566;-42
2024/02/09 06:32:13;;;;;;;;;18.00;16.00;;;;;8.30;100.00;98051.56;6278629;20;2820137;-42
2024/02/09 06:34:41;;;;;;;;;16.50;14.00;;;;;8.28;100.00;98052.66;6279349;20;2815950;-42
2024/02/09 06:37:09;;;;;;;;;18.00;18.00;;;;;8.56;100.00;98062.91;6278450;20;2825283;-42
2024/02/09 06:39:36;;;;;;;;;14.50;12.50;;;;;8.57;100.00;98064.59;6277117;20;2794011;-42
2024/02/09 06:42:04;;;;;;;;;14.00;13.00;;;;;8.62;100.00;98066.09;6277935;20;2801340;-44
2024/02/09 06:44:34;;;;;;;;;14.50;13.00;;;;;8.57;100.00;98069.13;6278582;20;2799323;-43
2024/02/09 06:47:02;;;;;;;;;16.50;13.00;;;;;8.54;100.00;98077.38;6277338;20;2818092;-43
2024/02/09 06:49:31;;;;;;;;;11.00;6.00;;;;;8.64;99.74;98075.69;6292887;20;1818015;-42
2024/02/09 06:52:00;;;;;;;;;15.33;14.00;;;;;8.90;97.98;98078.94;6306793;20;3542030;-42
2024/02/09 06:54:30;;;;;;;;;18.80;12.00;;;;;9.07;97.75;98082.09;6328798;20;2810752;-45
2024/02/09 06:56:59;;;;;;;;;15.00;14.00;;;;;9.09;97.02;98089.00;6279946;20;2813847;-42
2024/02/09 06:59:28;;;;;;;;;15.40;12.20;;;;;9.19;96.29;98081.94;6298642;20;2807576;-42
2024/02/09 07:01:59;;;;;;;;;13.00;13.00;;;;;8.89;96.25;98079.91;6270895;20;3531471;-42
2024/02/09 07:04:29;;;;;;;;;16.00;14.00;;;;;9.05;97.83;98074.16;6304274;20;3539865;-43
2024/02/09 07:07:05;;;;;;;;;15.33;14.00;;;;;9.02;96.65;98074.41;6303189;20;3526305;-42
2024/02/09 07:09:35;;;;;;;;;16.67;14.00;;;;;9.33;95.56;98067.41;6296503;20;3543333;-43
2024/02/09 07:12:04;;;;;;;;;23.00;15.50;;;;;9.53;94.05;98063.09;6303039;20;2496223;-41
2024/02/09 07:14:33;;;;;;;;;17.33;16.00;;;;;9.48;93.55;98059.94;6272095;20;3550403;-49
2024/02/09 07:17:04;;;;;;;;;20.00;17.00;;;;;9.45;95.04;98055.69;6271575;20;2820238;-52
2024/02/09 07:19:34;;;;;;;;;19.33;17.33;;;;;9.56;92.94;98062.81;6273810;20;3556593;-50
2024/02/09 07:22:02;;;;;;;;;24.00;18.00;;;;;9.50;93.79;98057.97;6273878;20;2835140;-49
2024/02/09 07:24:30;;;;;;;;;23.00;17.50;;;;;9.60;93.91;98058.06;6272901;20;2835711;-46
2024/02/09 07:26:58;;;;;;;;;19.00;17.50;;;;;10.31;90.44;98058.28;6268575;20;2500319;-50
2024/02/09 07:29:26;;;;;;;;;18.33;17.00;;;;;11.36;83.35;98057.94;6273370;20;3558582;-48
2024/02/09 07:31:56;;;;;;;;;19.33;15.67;;;;;12.72;73.50;98061.31;6272438;20;3551309;-49
2024/02/09 07:34:24;;;;;;;;;16.00;15.00;;;;;13.43;69.48;98058.94;6276105;20;2815968;-47
2024/02/09 07:36:54;;;;;;;;;19.00;16.33;;;;;13.84;66.94;98058.34;6273273;20;3551333;-50
2024/02/09 07:39:22;;;;;;;;;16.00;14.00;;;;;14.79;62.59;98058.53;6275944;20;2805517;-47
2024/02/09 07:41:51;;;;;;;;;20.00;16.50;;;;;12.49;70.71;98055.44;6273373;20;2828607;-49
2024/02/09 07:44:20;;;;;;;;;21.00;19.00;;;;;11.85;75.20;98053.44;6271179;20;2831517;-48
2024/02/09 07:46:48;;;;;;;;;24.00;20.00;;;;;11.06;80.85;98051.66;6273146;20;2831515;-47
2024/02/09 07:49:18;;;;;;;;;15.00;14.00;;;;;10.93;82.74;98051.06;6273267;20;3534699;-45
2024/02/09 07:51:46;;;;;;;;;17.50;14.50;;;;;11.14;82.14;98046.44;6299044;20;2496121;-50
2024/02/09 07:54:15;;;;;;;;;14.00;14.00;;;;;11.17;82.02;98046.16;6273410;20;2775433;-46
2024/02/09 07:56:43;;;;;;;;;16.00;16.00;;;;;11.29;81.54;98037.97;6303949;20;2833672;-47
2024/02/09 07:59:12;;;;;;;;;17.00;17.00;;;;;11.16;82.13;98044.47;6270959;20;3562911;-46
2024/02/09 08:01:41;;;;;;;;;16.00;15.00;;;;;11.11;82.88;98045.84;6268050;20;2498226;-47
2024/02/09 08:04:10;;;;;;;;;19.00;16.00;;;;;11.35;81.36;98046.34;6273327;20;3555474;-48
2024/02/09 08:06:40;;;;;;;;;18.50;18.00;;;;;11.12;82.54;98042.19;6274789;20;2831642;-47
2024/02/09 08:09:09;;;;;;;;;26.00;25.33;;;;;11.29;81.42;98044.19;6274229;20;3586764;-47
2024/02/09 08:11:42;;;;;;;;;17.00;15.00;;;;;11.25;82.15;98041.94;6277611;20;2491967;-48
2024/02/09 08:14:10;;;;;;;;;19.00;18.00;;;;;11.18;82.13;98039.78;6271642;20;2822217;-47
2024/02/09 08:16:40;;;;;;;;;30.33;25.00;;;;;11.38;80.67;98037.16;6271779;20;2850433;-45
2024/02/09 08:19:09;;;;;;;;;22.50;19.00;;;;;12.00;77.40;98046.63;6302371;20;2833635;-48
2024/02/09 08:21:39;;;;;;;;;20.00;17.00;;;;;12.01;76.74;98040.28;6276657;20;2833615;-46
2024/02/09 08:24:10;;;;;;;;;22.50;21.50;;;;;11.98;77.22;98037.88;6276576;20;2848203;-46
2024/02/09 08:26:38;;;;;;;;;23.50;19.50;;;;;12.46;75.26;98038.75;6271102;20;2500314;-49
2024/02/09 08:29:21;;;;;;;;;19.00;16.50;;;;;12.72;73.93;98030.84;6278793;20;2500295;-45
2024/02/09 08:31:49;;;;;;;;;16.00;16.00;;;;;13.35;70.88;98035.47;6276995;20;2492051;-45
2024/02/09 08:34:18;;;;;;;;;20.00;17.00;;;;;12.81;72.39;98032.63;6282288;20;2834679;-51
2024/02/09 08:36:47;;;;;;;;;19.00;17.00;;;;;13.27;71.36;98038.06;6279253;20;2828554;-49
2024/02/09 08:39:16;;;;;;;;;18.00;16.50;;;;;12.91;72.80;98035.28;6281179;20;2826432;-46
2024/02/09 08:41:44;;;;;;;;;16.50;16.00;;;;;13.07;71.53;98026.53;6281723;20;2827406;-50
2024/02/09 08:44:13;;;;;;;;;18.50;16.50;;;;;12.83;72.58;98029.81;6277469;20;2835823;-47
2024/02/09 08:46:41;;;;;;;;;16.00;16.00;;;;;13.14;72.01;98025.78;6281925;20;2826328;-46
2024/02/09 08:49:10;;;;;;;;;21.00;14.00;;;;;13.07;71.04;98021.16;6314104;20;2491954;-50
2024/02/09 08:51:38;;;;;;;;;17.33;17.33;;;;;13.02;71.30;98018.06;6281040;20;3564846;-47
2024/02/09 08:54:07;;;;;;;;;14.00;14.00;;;;;13.00;71.08;98020.91;6279809;20;3520158;-46
2024/02/09 08:56:35;;;;;;;;;17.00;17.00;;;;;13.33;70.94;98014.06;6276777;20;2491987;-46
2024/02/09 08:59:06;;;;;;;;;17.00;15.50;;;;;12.94;71.17;98016.97;6281191;20;2823200;-48
2024/02/09 09:01:39;;;;;;;;;15.00;15.00;;;;;13.50;69.53;98009.66;6279468;20;3539902;-49
2024/02/09 09:04:08;;;;;;;;;12.67;12.67;;;;;13.15;70.68;98013.16;6274679;20;3520079;-47
2024/02/09 09:06:37;;;;;;;;;11.50;11.50;;;;;13.28;70.12;98008.28;6313536;20;2784683;-48
2024/02/09 09:09:07;;;;;;;;;13.00;13.00;;;;;13.45;68.87;98005.72;6273864;20;3537800;-49
2024/02/09 09:11:36;;;;;;;;;13.33;10.33;;;;;13.59;68.34;97997.13;6278298;20;3516968;-46
2024/02/09 09:14:05;;;;;;;;;14.33;12.33;;;;;13.66;68.15;97995.47;6308888;20;3511774;-47
2024/02/09 09:16:33;;;;;;;;;14.50;13.50;;;;;13.54;68.81;97996.72;6278052;20;2787866;-48
2024/02/09 09:19:05;;;;;;;;;12.33;12.00;;;;;13.24;69.35;98001.44;6278479;20;3508582;-46
2024/02/09 09:21:33;;;;;;;;;11.50;11.50;;;;;13.54;68.35;98012.91;6313733;20;2797289;-46
2024/02/09 09:24:03;;;;;;;;;14.00;13.67;;;;;13.07;70.13;98000.44;6277442;20;3529559;-46
2024/02/09 09:26:31;;;;;;;;;12.00;12.00;;;;;13.38;69.13;97997.44;6280657;20;2795071;-46
2024/02/09 09:29:00;;;;;;;;;13.00;12.00;;;;;13.17;69.85;97997.69;6276636;20;2801347;-47
2024/02/09 09:31:31;;;;;;;;;13.00;13.00;;;;;13.25;68.68;98008.56;6278273;20;3505474;-47
2024/02/09 09:34:00;;;;;;;;;11.00;11.00;;;;;13.14;69.64;97995.31;6307143;20;3518407;-49
2024/02/09 09:36:33;;;;;;;;;13.00;13.00;;;;;13.37;68.27;97995.72;6310361;20;3539841;-48
2024/02/09 09:39:06;;;;;;;;;14.00;14.00;;;;;13.16;69.26;97995.97;6279169;20;2795075;-47
2024/02/09 09:41:42;;;;;;;;;18.00;15.00;;;;;13.25;68.90;97992.38;6279443;20;3540027;-47
2024/02/09 09:44:10;;;;;;;;;19.50;14.50;;;;;13.19;68.99;97998.38;6276817;20;2809678;-51
2024/02/09 09:46:41;;;;;;;;;18.50;15.50;;;;;13.25;69.88;98002.31;6276043;20;2822156;-45
2024/02/09 09:49:11;;;;;;;;;20.50;18.00;;;;;13.00;70.27;97993.13;6275715;20;2498203;-45
2024/02/09 09:51:50;;;;;;;;;20.00;16.00;;;;;12.98;70.56;98016.66;6276420;20;3570071;-48
2024/02/09 09:54:22;;;;;;;;;12.50;12.50;;;;;12.73;71.85;98013.69;6275704;20;2797153;-49
2024/02/09 09:56:52;;;;;;;;;16.00;15.00;;;;;12.63;74.48;98018.25;6281270;20;2814903;-47
2024/02/09 09:59:21;;;;;;;;;15.00;13.67;;;;;12.59;75.96;98012.34;6276409;20;3537781;-46
2024/02/09 10:01:50;;;;;;;;;14.33;14.33;;;;;12.43;78.35;98006.75;6272493;20;3526713;-48
2024/02/09 10:04:18;;;;;;;;;16.00;16.00;;;;;12.43;80.10;98006.75;6276630;20;2500294;-46
2024/02/09 10:06:47;;;;;;;;;21.50;16.00;;;;;12.50;79.04;98005.97;6274350;20;2494058;-46
2024/02/09 10:09:16;;;;;;;;;17.50;17.00;;;;;12.42;81.16;98000.50;6272918;20;2492031;-45
2024/02/09 10:11:48;;;;;;;;;15.00;15.00;;;;;12.45;82.42;98002.03;6280658;20;2807667;-48
2024/02/09 10:14:20;;;;;;;;;17.50;14.50;;;;;12.39;82.27;98006.16;6278727;20;2818088;-46
2024/02/09 10:16:49;;;;;;;;;18.50;16.00;;;;;12.50;82.46;97989.81;6276282;20;2824292;-47
2024/02/09 10:19:17;;;;;;;;;21.00;20.00;;;;;12.50;83.31;98002.44;6271698;20;2838918;-47
2024/02/09 10:21:46;;;;;;;;;18.50;17.50;;;;;12.56;82.43;97995.63;6276493;20;2492034;-47
2024/02/09 10:24:26;;;;;;;;;17.50;16.00;;;;;12.39;83.30;97987.31;6276432;20;2829521;-46
2024/02/09 10:26:56;;;;;;;;;16.33;13.33;;;;;12.59;82.78;97979.19;6279059;20;3540915;-48
2024/02/09 10:29:26;;;;;;;;;15.50;15.50;;;;;12.24;83.49;97980.72;6304090;20;2492002;-47
2024/02/09 10:31:55;;;;;;;;;20.50;16.00;;;;;12.79;81.74;97985.31;6276823;20;2491991;-49
2024/02/09 10:34:24;;;;;;;;;15.00;15.00;;;;;12.72;82.27;97971.59;6275855;20;3540936;-48
2024/02/09 10:36:57;;;;;;;;;24.67;23.00;;;;;12.39;82.78;97968.50;6310534;20;3588827;-47
2024/02/09 10:39:26;;;;;;;;;21.50;20.50;;;;;12.65;82.29;97967.81;6272998;20;2841017;-51
2024/02/09 10:42:03;;;;;;;;;26.33;22.67;;;;;12.63;81.80;97962.56;6274737;20;2852451;-50
2024/02/09 10:44:32;;;;;;;;;17.00;15.00;;;;;12.52;82.49;97952.84;6304445;20;2814985;-49
2024/02/09 10:47:08;;;;;;;;;17.00;16.00;;;;;12.81;81.29;97945.59;6274983;20;2821254;-46
2024/02/09 10:49:40;;;;;;;;;17.00;17.00;;;;;12.95;80.60;97937.88;6272755;20;2496165;-50
2024/02/09 10:52:10;;;;;;;;;15.33;15.33;;;;;13.00;79.61;97936.53;6277375;20;2825310;-47
2024/02/09 10:54:49;;;;;;;;;20.33;18.67;;;;;13.14;79.27;97931.47;6309141;20;3569019;-46
2024/02/09 10:57:19;;;;;;;;;23.50;18.00;;;;;13.10;79.01;97929.22;6305900;20;2839970;-46
2024/02/09 10:59:47;;;;;;;;;15.50;14.00;;;;;13.30;77.49;97925.41;6270000;20;2500318;-47
2024/02/09 11:02:16;;;;;;;;;19.00;16.00;;;;;13.29;77.37;97922.88;6272380;20;2823243;-46
2024/02/09 11:04:46;;;;;;;;;19.67;17.00;;;;;13.78;74.77;97921.41;6275080;20;3560734;-46
2024/02/09 11:07:15;;;;;;;;;23.00;19.00;;;;;13.94;74.11;97922.53;6306597;20;3569029;-48
2024/02/09 11:09:45;;;;;;;;;21.00;21.00;;;;;13.79;72.94;97919.53;6302135;20;2839883;-48
2024/02/09 11:12:14;;;;;;;;;10.00;10.00;;;;;14.04;72.32;97912.47;6272539;20;3512813;-47
2024/02/09 11:14:44;;;;;;;;;12.33;12.00;;;;;13.99;70.96;97910.25;6302296;20;3533638;-49
2024/02/09 11:17:21;;;;;;;;;15.33;12.33;;;;;14.11;70.34;97916.19;6274023;20;3506540;-47
2024/02/09 11:19:52;;;;;;;;;18.00;15.00;;;;;14.10;69.19;97906.41;6303790;20;2487780;-52
2024/02/09 11:22:21;;;;;;;;;13.00;13.00;;;;;14.33;69.03;97909.41;6274156;20;3524257;-50
2024/02/09 11:24:51;;;;;;;;;12.67;10.67;;;;;14.11;69.61;97902.69;6301419;20;3515908;-52
2024/02/09 11:27:20;;;;;;;;;12.00;12.00;;;;;14.10;69.08;97911.81;6310691;20;2786844;-49
2024/02/09 11:29:51;;;;;;;;;11.33;10.33;;;;;14.17;68.80;97909.34;6271554;20;3509459;-50
2024/02/09 11:32:22;;;;;;;;;10.00;10.00;;;;;14.10;68.79;97906.41;6312879;20;2785719;-48
2024/02/09 11:34:49;;;;;;;;;14.00;11.00;;;;;14.20;68.04;97896.34;6274791;20;2792980;-49
2024/02/09 11:37:17;;;;;;;;;12.00;10.00;;;;;14.15;68.71;97904.09;6280828;20;2787266;-50
2024/02/09 11:39:45;;;;;;;;;11.50;11.50;;;;;14.21;68.72;97898.03;6279161;20;2796257;-48
2024/02/09 11:42:17;;;;;;;;;11.00;11.00;;;;;14.23;68.91;97898.72;6276675;20;3515927;-49
2024/02/09 11:45:01;;;;;;;;;13.00;13.00;;;;;14.58;68.20;97907.66;6306394;20;2798320;-50
2024/02/09 11:47:32;;;;;;;;;14.33;12.00;;;;;14.81;66.49;97893.56;6271589;20;3534674;-48
2024/02/09 11:50:01;;;;;;;;;12.33;12.33;;;;;14.81;67.49;97893.56;6272893;20;3521117;-47
2024/02/09 11:52:29;;;;;;;;;11.00;10.67;;;;;14.79;66.05;97895.56;6270675;20;3513866;-49
2024/02/09 11:55:01;;;;;;;;;13.67;10.67;;;;;14.82;66.41;97895.22;6305769;20;3512885;-47
2024/02/09 11:57:31;;;;;;;;;11.60;9.00;;;;;14.76;65.38;97885.94;6331797;20;2767985;-49
2024/02/09 12:00:00;;;;;;;;;12.33;12.33;;;;;14.86;65.38;97893.91;6272292;20;3522285;-48
2024/02/09 12:02:31;;;;;;;;;17.00;17.00;;;;;14.81;65.94;97888.16;6301968;20;2487881;-49
2024/02/09 12:05:00;;;;;;;;;14.00;14.00;;;;;14.66;66.38;97896.88;6275237;20;2494018;-47
2024/02/09 12:07:29;;;;;;;;;15.33;14.00;;;;;14.85;65.94;97890.38;6273805;20;3540882;-49
2024/02/09 12:09:58;;;;;;;;;15.00;15.00;;;;;14.92;65.92;97877.03;6273228;20;3539886;-48
2024/02/09 12:12:25;;;;;;;;;15.50;14.00;;;;;14.96;65.33;97886.50;6273193;20;2500871;-49
2024/02/09 12:14:53;;;;;;;;;18.00;15.00;;;;;14.77;66.19;97875.97;6272538;20;2494139;-47
2024/02/09 12:17:22;;;;;;;;;19.67;16.00;;;;;14.79;65.93;97873.97;6272830;20;3561919;-49
2024/02/09 12:19:51;;;;;;;;;22.00;18.00;;;;;14.86;66.04;97867.72;6271587;20;2838927;-50
2024/02/09 12:22:20;;;;;;;;;25.67;19.33;;;;;14.90;66.16;97861.00;6276935;20;3585727;-48
2024/02/09 12:24:48;;;;;;;;;13.50;12.00;;;;;15.26;64.49;97865.22;6276674;20;2796148;-47
2024/02/09 12:27:18;;;;;;;;;18.00;14.50;;;;;14.91;65.21;97856.44;6278087;20;2492238;-51
2024/02/09 12:29:49;;;;;;;;;14.00;11.67;;;;;14.94;64.69;97858.78;6277989;20;3510726;-50
2024/02/09 12:32:17;;;;;;;;;13.00;13.00;;;;;15.11;64.46;97856.94;6315546;20;2791994;-48
2024/02/09 12:34:46;;;;;;;;;12.00;11.00;;;;;15.18;64.59;97857.13;6289273;20;2673309;-48
2024/02/09 12:37:17;;;;;;;;;22.00;19.00;;;;;15.14;64.14;97862.88;6278942;20;2838840;-52
2024/02/09 12:39:53;;;;;;;;;12.00;10.50;;;;;14.93;64.25;97860.66;6283522;20;2794021;-48
2024/02/09 12:42:27;;;;;;;;;14.00;11.50;;;;;15.01;64.52;97854.41;6285988;20;2794024;-49
2024/02/09 12:44:57;;;;;;;;;10.00;10.00;;;;;14.91;64.28;97861.81;6277855;20;2790997;-50
2024/02/09 12:47:26;;;;;;;;;10.50;9.00;;;;;15.02;64.17;97847.16;6316404;20;2770118;-48
2024/02/09 12:49:56;;;;;;;;;17.00;12.67;;;;;14.81;64.38;97861.13;6280427;20;3552351;-48
2024/02/09 12:52:27;;;;;;;;;10.00;9.00;;;;;14.72;64.35;97865.69;6313952;20;2765977;-47
2024/02/09 12:54:56;;;;;;;;;13.00;13.00;;;;;14.95;63.87;97862.31;6278208;20;3518088;-49
2024/02/09 12:57:26;;;;;;;;;9.67;9.00;;;;;14.93;63.87;97854.41;6307995;20;3483624;-53
2024/02/09 12:59:54;;;;;;;;;11.50;10.50;;;;;14.74;64.64;97852.00;6310354;20;2788870;-50
2024/02/09 13:02:24;;;;;;;;;10.00;10.00;;;;;15.14;63.44;97857.47;6310794;20;3507637;-50
2024/02/09 13:04:51;;;;;;;;;12.50;12.50;;;;;15.03;63.99;97854.22;6312114;20;2789998;-51